^^
Saratoga-Weather Station Historical Data
Daily Summary for January 13, 2020 Units:  English    Metric   Both
Daily Weekly Monthly Yearly Custom
  High: Low: Average:
Temperature: 45.9 °F 32.2 °F 40.5 °F
Dew Point: 43.2 °F 30.6 °F 37.4 °F
Humidity: 96% 76% 89%
Wind Speed: 19mph 0mph 3.4mph
Wind Gust: 26mph - -
Wind- - SSW
Pressure: 30.1 in 29.5 in -
Precipitation: 0.21 in    
Historical Graphs
 
 
Tabular Data for January 13, 2020
Time Temperature Dew Point Pressure Wind Wind Speed Wind Gust Humidity Rainfall Rate (Hourly) solar
00:00 39.6 °F 36.3 °F 30.1 in Calm   5 mph 88% 0 in 0 W/m2
00:05 39.6 °F 36.3 °F 30.1 in Calm   7 mph 88% 0 in 0 W/m2
00:10 39.6 °F 36.3 °F 30.1 in WSW 0.9 mph 3 mph 88% 0 in 0 W/m2
00:15 39.6 °F 36.3 °F 30.1 in WNW 2.9 mph 7 mph 88% 0 in 0 W/m2
00:20 39.6 °F 36.3 °F 30.1 in WNW 0.9 mph 2 mph 88% 0 in 0 W/m2
00:25 39.4 °F 36.1 °F 30.1 in Calm   1 mph 88% 0 in 0 W/m2
00:30 39.4 °F 36.1 °F 30.1 in NNE 2 mph 2 mph 88% 0 in 0 W/m2
00:35 39.4 °F 36.1 °F 30.1 in SSW 0.9 mph 2 mph 88% 0 in 0 W/m2
00:40 39.2 °F 36 °F 30.1 in NNW 0.9 mph 2 mph 88% 0 in 0 W/m2
00:45 39.2 °F 36 °F 30.1 in South 2 mph 2 mph 88% 0 in 0 W/m2
00:50 39 °F 35.8 °F 30.1 in NW 0.9 mph 1 mph 88% 0 in 0 W/m2
00:55 39 °F 35.8 °F 30.1 in NW 2 mph 2 mph 88% 0 in 0 W/m2
01:00 38.8 °F 36 °F 30.1 in Calm   1 mph 89% 0 in 0 W/m2
01:05 38.8 °F 36 °F 30.1 in Calm   1 mph 89% 0 in 0 W/m2
01:10 38.8 °F 36 °F 30.1 in NW 0.9 mph 2 mph 89% 0 in 0 W/m2
01:15 38.7 °F 35.8 °F 30.1 in Calm   1 mph 89% 0 in 0 W/m2
01:20 38.7 °F 35.8 °F 30.1 in Calm   3 mph 89% 0 in 0 W/m2
01:25 38.7 °F 35.8 °F 30.1 in Calm   3 mph 89% 0 in 0 W/m2
01:30 38.3 °F 35.4 °F 30.1 in Calm   3 mph 89% 0 in 0 W/m2
01:35 37.9 °F 35.1 °F 30.1 in Calm   2 mph 89% 0 in 0 W/m2
01:40 37.4 °F 34.2 °F 30.1 in SE 2 mph 3 mph 88% 0 in 0 W/m2
01:45 36.9 °F 34 °F 30.1 in East 0.9 mph 1 mph 89% 0 in 0 W/m2
01:50 36.7 °F 34 °F 30.1 in Calm   3 mph 90% 0 in 0 W/m2
01:55 36.7 °F 34.3 °F 30.1 in ESE 0.9 mph 2 mph 91% 0 in 0 W/m2
02:00 37.2 °F 35.1 °F 30 in NW 0.9 mph 3 mph 92% 0 in 0 W/m2
02:05 37.8 °F 35.6 °F 30 in NW 2 mph 2 mph 92% 0 in 0 W/m2
02:10 37.9 °F 35.6 °F 30 in WNW 0.9 mph 3 mph 91% 0 in 0 W/m2
02:15 37.9 °F 35.6 °F 30 in Calm   2 mph 91% 0 in 0 W/m2
02:20 37.8 °F 35.1 °F 30 in Calm   1 mph 90% 0 in 0 W/m2
02:25 37.6 °F 34.9 °F 30 in Calm     90% 0 in 0 W/m2
02:30 37 °F 34.3 °F 30 in SE 2 mph 2 mph 90% 0 in 0 W/m2
02:35 36.3 °F 33.4 °F 30 in SE 2 mph 2 mph 89% 0 in 0 W/m2
02:40 35.8 °F 33.1 °F 30 in SE 2 mph 2 mph 90% 0 in 0 W/m2
02:45 35.2 °F 32.5 °F 30 in SE 0.9 mph 1 mph 90% 0 in 0 W/m2
02:50 34.9 °F 32.5 °F 30 in SE 0.9 mph 2 mph 91% 0 in 0 W/m2
02:55 34.7 °F 32.5 °F 30 in Calm   1 mph 92% 0 in 0 W/m2
03:01 34.5 °F 32.4 °F 30 in Calm     92% 0 in 0 W/m2
03:06 34.3 °F 32.2 °F 30 in Calm     92% 0 in 0 W/m2
03:11 34 °F 31.8 °F 30 in Calm     92% 0 in 0 W/m2
03:16 33.8 °F 31.6 °F 30 in Calm     92% 0 in 0 W/m2
03:21 33.6 °F 31.8 °F 30 in Calm     93% 0 in 0 W/m2
03:26 33.4 °F 31.6 °F 30 in Calm     93% 0 in 0 W/m2
03:31 33.3 °F 31.5 °F 30 in Calm     93% 0 in 0 W/m2
03:36 33.1 °F 31.3 °F 30 in Calm     93% 0 in 0 W/m2
03:41 33.1 °F 31.3 °F 30 in Calm     93% 0 in 0 W/m2
03:46 32.9 °F 31.1 °F 30 in Calm     93% 0 in 0 W/m2
03:51 32.7 °F 30.9 °F 30 in Calm     93% 0 in 0 W/m2
03:56 32.7 °F 31.1 °F 30 in Calm     94% 0 in 0 W/m2
04:01 32.7 °F 31.1 °F 30 in Calm     94% 0 in 0 W/m2
04:06 32.5 °F 30.9 °F 30 in Calm     94% 0 in 0 W/m2
04:11 32.5 °F 30.9 °F 30 in Calm     94% 0 in 0 W/m2
04:16 32.5 °F 30.9 °F 30 in Calm     94% 0 in 0 W/m2
04:21 32.4 °F 30.7 °F 30 in Calm     94% 0 in 0 W/m2
04:26 32.4 °F 30.7 °F 30 in Calm     94% 0 in 0 W/m2
04:31 32.4 °F 30.7 °F 30 in Calm     94% 0 in 0 W/m2
04:36 32.4 °F 30.7 °F 30 in Calm     94% 0 in 0 W/m2
04:41 32.2 °F 30.6 °F 30 in Calm     94% 0 in 0 W/m2
04:46 32.2 °F 30.6 °F 30 in Calm     94% 0 in 0 W/m2
04:52 32.2 °F 30.9 °F 30 in Calm     95% 0 in 0 W/m2
04:57 32.4 °F 31.1 °F 30 in Calm     95% 0 in 0 W/m2
05:02 32.4 °F 31.1 °F 30 in Calm     95% 0 in 0 W/m2
05:07 32.4 °F 31.1 °F 30 in Calm     95% 0 in 0 W/m2
05:12 32.4 °F 31.1 °F 30 in Calm   1 mph 95% 0 in 0 W/m2
05:17 32.2 °F 30.9 °F 30 in Calm     95% 0 in 0 W/m2
05:22 32.2 °F 30.9 °F 30 in Calm     95% 0 in 0 W/m2
05:27 32.2 °F 30.9 °F 30 in Calm     95% 0 in 0 W/m2
05:33 32.2 °F 30.9 °F 30 in Calm     95% 0 in 0 W/m2
05:38 32.2 °F 30.9 °F 30 in Calm     95% 0 in 0 W/m2
05:43 32.2 °F 30.9 °F 30 in Calm     95% 0 in 0 W/m2
05:48 32.4 °F 31.3 °F 30 in Calm     96% 0 in 0 W/m2
05:53 32.5 °F 31.5 °F 30 in Calm     96% 0 in 0 W/m2
05:58 32.5 °F 31.5 °F 29.9 in Calm     96% 0 in 0 W/m2
06:03 32.5 °F 31.5 °F 29.9 in Calm     96% 0 in 0 W/m2
06:08 32.5 °F 31.3 °F 29.9 in Calm     95% 0 in 0 W/m2
06:13 32.7 °F 31.6 °F 29.9 in Calm     96% 0 in 0 W/m2
06:18 32.7 °F 31.6 °F 29.9 in Calm     96% 0 in 0 W/m2
06:23 32.7 °F 31.6 °F 29.9 in Calm     96% 0 in 0 W/m2
06:28 33.1 °F 32 °F 29.9 in Calm   2 mph 96% 0 in 0 W/m2
06:33 33.3 °F 32.2 °F 29.9 in Calm   1 mph 96% 0 in 0 W/m2
06:38 33.4 °F 32.4 °F 29.9 in Calm     96% 0 in 0 W/m2
06:43 33.4 °F 32.4 °F 29.9 in Calm     96% 0 in 0 W/m2
06:48 33.4 °F 32.4 °F 29.9 in Calm     96% 0 in 0 W/m2
06:53 33.4 °F 32.4 °F 29.9 in Calm     96% 0 in 0 W/m2
06:58 33.3 °F 32.2 °F 29.9 in Calm     96% 0 in 0 W/m2
07:03 33.3 °F 32.2 °F 29.9 in Calm     96% 0 in 0 W/m2
07:08 33.3 °F 32.2 °F 29.9 in Calm     96% 0 in 0 W/m2
07:13 33.3 °F 32.2 °F 29.9 in NNE 0.9 mph 2 mph 96% 0 in 0 W/m2
07:18 33.3 °F 32.2 °F 29.9 in East 2 mph 2 mph 96% 0 in 0 W/m2
07:23 33.4 °F 32.4 °F 29.9 in NE 2 mph 2 mph 96% 0 in 0 W/m2
07:28 34 °F 32.9 °F 29.9 in NE 4 mph 4 mph 96% 0 in 0 W/m2
07:33 34.5 °F 33.4 °F 29.9 in NE 0.9 mph 3 mph 96% 0 in 0 W/m2
07:39 34.9 °F 33.8 °F 29.9 in NNE 2.9 mph 4 mph 96% 0 in 0 W/m2
07:44 34.9 °F 33.8 °F 29.9 in North 0.9 mph 2 mph 96% 0 in 0 W/m2
07:49 35.1 °F 34 °F 29.9 in NNE 0.9 mph 2 mph 96% 0 in 0 W/m2
07:54 35.2 °F 34.2 °F 29.9 in ENE 2.9 mph 4 mph 96% 0 in 0 W/m2
07:59 35.4 °F 34.2 °F 29.9 in ENE 2.9 mph 4 mph 95% 0 in 5 W/m2
08:04 35.4 °F 34.2 °F 29.9 in NE 0.9 mph 2 mph 95% 0 in 9 W/m2
08:09 35.6 °F 34.3 °F 29.8 in ENE 2.9 mph 4 mph 95% 0 in 11 W/m2
08:14 36 °F 34.7 °F 29.8 in East 4 mph 8 mph 95% 0 in 12 W/m2
08:19 36.3 °F 34.7 °F 29.8 in ENE 6 mph 7 mph 94% 0 in 14 W/m2
08:24 36.7 °F 34.9 °F 29.8 in ENE 2.9 mph 10 mph 93% 0 in 19 W/m2
08:29 36.9 °F 34.7 °F 29.8 in East 2.9 mph 5 mph 92% 0 in 23 W/m2
08:34 36.9 °F 34.5 °F 29.8 in East 2.9 mph 10 mph 91% 0 in 25 W/m2
08:39 37 °F 34.7 °F 29.8 in ENE 8.9 mph 9 mph 91% 0 in 21 W/m2
08:44 37 °F 34.3 °F 29.8 in ESE 4 mph 5 mph 90% 0 in 26 W/m2
08:49 37 °F 34.3 °F 29.8 in ENE 2.9 mph 8 mph 90% 0 in 44 W/m2
08:54 37.2 °F 34.3 °F 29.8 in ENE 2 mph 6 mph 89% 0 in 46 W/m2
08:59 37.2 °F 34.3 °F 29.8 in NE 4.9 mph 14 mph 89% 0 in 53 W/m2
09:04 37.4 °F 34.2 °F 29.8 in ESE 10.1 mph 10 mph 88% 0 in 72 W/m2
09:09 37.4 °F 34.2 °F 29.8 in East 8.1 mph 13 mph 88% 0 in 67 W/m2
09:14 37.6 °F 34.3 °F 29.8 in ENE 4 mph 11 mph 88% 0 in 67 W/m2
09:19 37.8 °F 34.5 °F 29.8 in ESE 6.9 mph 12 mph 88% 0 in 67 W/m2
09:24 37.8 °F 34.2 °F 29.8 in SSE 6 mph 9 mph 87% 0 in 54 W/m2
09:29 37.9 °F 34.3 °F 29.8 in NE 2.9 mph 11 mph 87% 0 in 72 W/m2
09:34 37.9 °F 34.3 °F 29.8 in ESE 8.9 mph 11 mph 87% 0 in 86 W/m2
09:39 38.1 °F 34.3 °F 29.8 in NE 2.9 mph 6 mph 86% 0 in 79 W/m2
09:44 38.5 °F 34.7 °F 29.8 in ESE 2.9 mph 7 mph 86% 0 in 77 W/m2
09:49 38.7 °F 34.5 °F 29.8 in ESE 2 mph 8 mph 85% 0 in 54 W/m2
09:54 38.7 °F 34.2 °F 29.8 in East 2.9 mph 7 mph 84% 0 in 49 W/m2
09:59 38.8 °F 34.3 °F 29.7 in NE 2.9 mph 8 mph 84% 0 in 42 W/m2
10:04 38.8 °F 34.3 °F 29.7 in NE 0.9 mph 5 mph 84% 0 in 58 W/m2
10:09 39 °F 34.5 °F 29.7 in ENE 0.9 mph 2 mph 84% 0 in 49 W/m2
10:14 39 °F 34.3 °F 29.7 in NNE 0.9 mph 2 mph 83% 0 in 28 W/m2
10:19 39.2 °F 34.5 °F 29.7 in NNW 0.9 mph 2 mph 83% 0 in 14 W/m2
10:24 39.4 °F 34.3 °F 29.7 in Calm   3 mph 82% 0 in 23 W/m2
10:29 39.6 °F 34.2 °F 29.7 in NNE 2 mph 5 mph 81% 0 in 46 W/m2
10:34 39.9 °F 34.3 °F 29.7 in NE 2.9 mph 5 mph 80% 0 in 47 W/m2
10:39 40.3 °F 34.3 °F 29.7 in Calm   2 mph 79% 0 in 19 W/m2
10:44 40.5 °F 34.2 °F 29.7 in NE 2 mph 3 mph 78% 0 in 26 W/m2
10:49 40.8 °F 34.2 °F 29.7 in NE 2.9 mph 11 mph 77% 0 in 54 W/m2
10:54 41.2 °F 34.5 °F 29.7 in ENE 4 mph 5 mph 77% 0 in 51 W/m2
10:59 41.4 °F 34.3 °F 29.7 in East 8.9 mph 10 mph 76% 0 in 42 W/m2
11:04 41.5 °F 34.5 °F 29.7 in ESE 2 mph 8 mph 76% 0 in 54 W/m2
11:09 41.7 °F 35.1 °F 29.7 in East 2.9 mph 7 mph 77% 0 in 53 W/m2
11:14 42.1 °F 35.1 °F 29.7 in NE 2.9 mph 5 mph 76% 0 in 51 W/m2
11:19 41.9 °F 35.2 °F 29.7 in ESE 6 mph 9 mph 77% 0 in 40 W/m2
11:24 41.5 °F 35.6 °F 29.7 in ESE 2 mph 9 mph 79% 0 in 33 W/m2
11:29 41.4 °F 35.4 °F 29.7 in ENE 2.9 mph 5 mph 79% 0 in 33 W/m2
11:34 41.4 °F 35.4 °F 29.7 in ENE 2.9 mph 9 mph 79% 0 in 33 W/m2
11:39 41.4 °F 35.4 °F 29.7 in NE 4 mph 4 mph 79% 0 in 28 W/m2
11:44 41.7 °F 35.8 °F 29.7 in ENE 4 mph 14 mph 79% 0 in 46 W/m2
11:49 42.1 °F 36 °F 29.7 in East 10.1 mph 12 mph 79% 0 in 39 W/m2
11:54 42.4 °F 36.3 °F 29.7 in NE 10.1 mph 14 mph 79% 0 in 25 W/m2
11:59 42.6 °F 36.9 °F 29.7 in North 2.9 mph 3 mph 80% 0 in 37 W/m2
12:04 42.8 °F 37 °F 29.6 in NE 6 mph 9 mph 80% 0 in 49 W/m2
12:09 43 °F 37.6 °F 29.6 in East 2.9 mph 7 mph 81% 0 in 49 W/m2
12:14 43.2 °F 37.8 °F 29.6 in NE 0.9 mph 9 mph 81% 0 in 40 W/m2
12:19 43.3 °F 37.9 °F 29.6 in NNE 2.9 mph 10 mph 81% 0 in 72 W/m2
12:24 43.3 °F 38.3 °F 29.6 in NE 6.9 mph 9 mph 82% 0 in 46 W/m2
12:29 43.5 °F 38.1 °F 29.6 in ENE 2 mph 13 mph 81% 0 in 47 W/m2
12:34 43.5 °F 38.5 °F 29.6 in NW 2 mph 5 mph 82% 0 in 47 W/m2
12:39 43.7 °F 38.5 °F 29.6 in West 6 mph 12 mph 82% 0 in 44 W/m2
12:44 43.9 °F 38.7 °F 29.6 in NE 4.9 mph 5 mph 82% 0 in 100 W/m2
12:50 44.1 °F 38.8 °F 29.6 in North 8.1 mph 9 mph 82% 0 in 40 W/m2
12:55 43.9 °F 39.4 °F 29.6 in WSW 4.9 mph 7 mph 84% 0.02 in 23 W/m2
13:00 43.5 °F 39.4 °F 29.6 in NNW 4.9 mph 6 mph 85% 0.03 in 32 W/m2
13:05 43.3 °F 39.4 °F 29.6 in NNW 2 mph 7 mph 86% 0.06 in 47 W/m2
13:10 43.2 °F 39.6 °F 29.6 in NW 4 mph 7 mph 87% 0.06 in 37 W/m2
13:15 43 °F 39.9 °F 29.6 in WSW 2.9 mph 3 mph 89% 0.09 in 81 W/m2
13:20 42.8 °F 39.7 °F 29.6 in NNW 4.9 mph 8 mph 89% 0.09 in 72 W/m2
13:25 42.6 °F 39.9 °F 29.6 in WNW 2 mph 5 mph 90% 0.11 in 97 W/m2
13:30 42.6 °F 39.9 °F 29.6 in WNW 2.9 mph 5 mph 90% 0.11 in 97 W/m2
13:35 42.6 °F 40.1 °F 29.6 in East 2 mph 3 mph 91% 0.11 in 79 W/m2
13:40 42.8 °F 40.3 °F 29.6 in East 0.9 mph 2 mph 91% 0.11 in 46 W/m2
13:45 42.8 °F 40.3 °F 29.6 in ENE 4 mph 4 mph 91% 0.11 in 37 W/m2
13:50 43 °F 40.5 °F 29.6 in West 6.9 mph 8 mph 91% 0.12 in 56 W/m2
13:55 43.2 °F 40.6 °F 29.6 in NE 4 mph 5 mph 91% 0.09 in 49 W/m2
14:00 43.5 °F 40.8 °F 29.6 in South 0.9 mph 8 mph 90% 0.09 in 81 W/m2
14:05 43.7 °F 40.6 °F 29.6 in SW 6.9 mph 12 mph 89% 0.06 in 65 W/m2
14:10 43.9 °F 40.6 °F 29.6 in WNW 4.9 mph 8 mph 88% 0.06 in 100 W/m2
14:15 44.1 °F 40.8 °F 29.6 in West 2.9 mph 6 mph 88% 0.03 in 76 W/m2
14:20 43.9 °F 40.3 °F 29.6 in WNW 2 mph 4 mph 87% 0.02 in 19 W/m2
14:25 43.9 °F 40.3 °F 29.6 in NNW 2.9 mph 4 mph 87% 0.01 in 12 W/m2
14:30 43.7 °F 40.5 °F 29.6 in WSW 0.9 mph 5 mph 88% 0.01 in 7 W/m2
14:35 43.7 °F 40.5 °F 29.6 in Calm   7 mph 88% 0.01 in 5 W/m2
14:40 43.7 °F 40.5 °F 29.6 in NNW 4 mph 4 mph 88% 0.01 in 7 W/m2
14:45 43.5 °F 40.5 °F 29.6 in NE 2.9 mph 3 mph 89% 0.01 in 12 W/m2
14:50 43.5 °F 40.5 °F 29.6 in WNW 2.9 mph 4 mph 89% 0 in 14 W/m2
14:55 43.5 °F 40.5 °F 29.6 in Calm   4 mph 89% 0 in 28 W/m2
15:00 43.5 °F 40.8 °F 29.6 in NW 0.9 mph 3 mph 90% 0 in 51 W/m2
15:05 43.7 °F 40.6 °F 29.6 in North 0.9 mph 1 mph 89% 0 in 42 W/m2
15:10 43.7 °F 40.6 °F 29.6 in NNW 0.9 mph 6 mph 89% 0 in 51 W/m2
15:15 43.9 °F 40.6 °F 29.6 in WNW 0.9 mph 4 mph 88% 0 in 125 W/m2
15:20 43.9 °F 40.3 °F 29.6 in West 11 mph 11 mph 87% 0 in 97 W/m2
15:25 44.1 °F 40.1 °F 29.6 in ENE 4 mph 5 mph 86% 0 in 139 W/m2
15:30 44.2 °F 40.1 °F 29.6 in NNW 4.9 mph 9 mph 85% 0 in 98 W/m2
15:36 44.4 °F 40.3 °F 29.6 in WNW 4.9 mph 8 mph 85% 0 in 74 W/m2
15:41 44.6 °F 40.5 °F 29.6 in WNW 0.9 mph 10 mph 85% 0 in 63 W/m2
15:46 44.6 °F 40.5 °F 29.6 in SW 4 mph 9 mph 85% 0 in 51 W/m2
15:51 44.6 °F 40.5 °F 29.6 in NW 2.9 mph 7 mph 85% 0 in 54 W/m2
15:56 44.8 °F 40.3 °F 29.6 in WSW 4.9 mph 11 mph 84% 0 in 54 W/m2
16:01 44.8 °F 40.3 °F 29.6 in West 6.9 mph 11 mph 84% 0 in 39 W/m2
16:06 44.8 °F 40.3 °F 29.6 in South 2 mph 4 mph 84% 0 in 49 W/m2
16:11 44.6 °F 40.5 °F 29.6 in NW 6 mph 10 mph 85% 0 in 62 W/m2
16:16 44.6 °F 40.5 °F 29.6 in SW 6.9 mph 8 mph 85% 0 in 49 W/m2
16:21 44.8 °F 40.5 °F 29.6 in South 2.9 mph 4 mph 85% 0 in 35 W/m2
16:26 44.8 °F 40.5 °F 29.6 in North 2.9 mph 10 mph 85% 0 in 54 W/m2
16:31 44.8 °F 40.5 °F 29.6 in NE 0.9 mph 9 mph 85% 0 in 42 W/m2
16:36 45 °F 41 °F 29.6 in North 2.9 mph 5 mph 86% 0 in 62 W/m2
16:41 45 °F 41 °F 29.6 in NW 2 mph 9 mph 86% 0 in 32 W/m2
16:46 45 °F 41 °F 29.6 in NNE 2.9 mph 5 mph 86% 0 in 19 W/m2
16:51 45 °F 41 °F 29.6 in West 2.9 mph 8 mph 86% 0 in 23 W/m2
16:56 44.8 °F 41.2 °F 29.6 in South 2 mph 9 mph 87% 0 in 18 W/m2
17:01 44.8 °F 41.2 °F 29.6 in NW 4.9 mph 5 mph 87% 0 in 19 W/m2
17:06 44.8 °F 41.2 °F 29.6 in WNW 2.9 mph 6 mph 87% 0 in 16 W/m2
17:11 44.8 °F 41.4 °F 29.5 in NNE 2.9 mph 3 mph 88% 0 in 9 W/m2
17:16 44.8 °F 41.4 °F 29.5 in NW 4 mph 4 mph 88% 0 in 21 W/m2
17:21 44.8 °F 41.4 °F 29.5 in WNW 2.9 mph 5 mph 88% 0 in 18 W/m2
17:26 44.8 °F 41.4 °F 29.5 in NW 4.9 mph 5 mph 88% 0 in 14 W/m2
17:31 45 °F 41.5 °F 29.5 in NNW 2 mph 3 mph 88% 0 in 12 W/m2
17:36 45 °F 41.5 °F 29.5 in North 2.9 mph 4 mph 88% 0 in 7 W/m2
17:41 45 °F 41.5 °F 29.5 in ENE 2 mph 4 mph 88% 0 in 5 W/m2
17:46 45 °F 41.5 °F 29.5 in NNE 2 mph 4 mph 88% 0 in 0 W/m2
17:51 45 °F 41.9 °F 29.5 in NNW 2.9 mph 6 mph 89% 0.01 in 0 W/m2
17:56 45 °F 41.9 °F 29.5 in NE 0.9 mph 4 mph 89% 0.01 in 0 W/m2
18:01 45 °F 41.9 °F 29.5 in NNW 2 mph 4 mph 89% 0.02 in 0 W/m2
18:06 44.8 °F 42.1 °F 29.5 in West 2 mph 8 mph 90% 0.02 in 0 W/m2
18:11 44.8 °F 42.1 °F 29.5 in East 0.9 mph 2 mph 90% 0.02 in 0 W/m2
18:16 44.8 °F 42.1 °F 29.5 in NW 2.9 mph 8 mph 90% 0.02 in 0 W/m2
18:21 45 °F 42.3 °F 29.5 in North 4 mph 8 mph 90% 0.02 in 0 W/m2
18:26 45 °F 42.3 °F 29.5 in NNW 2.9 mph 4 mph 90% 0.02 in 0 W/m2
18:31 45 °F 42.4 °F 29.5 in ENE 2 mph 8 mph 91% 0.02 in 0 W/m2
18:37 45 °F 42.4 °F 29.5 in North 2.9 mph 4 mph 91% 0.03 in 0 W/m2
18:42 44.8 °F 42.3 °F 29.5 in North 2 mph 4 mph 91% 0.03 in 0 W/m2
18:47 45 °F 42.8 °F 29.5 in WNW 4.9 mph 5 mph 92% 0.02 in 0 W/m2
18:52 44.8 °F 42.6 °F 29.5 in ESE 6 mph 6 mph 92% 0.03 in 0 W/m2
18:57 45 °F 42.8 °F 29.5 in NW 4.9 mph 10 mph 92% 0.03 in 0 W/m2
19:02 45 °F 42.8 °F 29.5 in NW 4 mph 10 mph 92% 0.02 in 0 W/m2
19:07 45 °F 42.8 °F 29.5 in NE 2 mph 5 mph 92% 0.02 in 0 W/m2
19:12 45 °F 42.8 °F 29.5 in NNW 4 mph 9 mph 92% 0.02 in 0 W/m2
19:17 45.1 °F 43 °F 29.5 in WSW 4 mph 4 mph 92% 0.03 in 0 W/m2
19:22 45.1 °F 43 °F 29.6 in NW 2 mph 7 mph 92% 0.02 in 0 W/m2
19:27 45.3 °F 42.8 °F 29.6 in West 2 mph 9 mph 91% 0.03 in 0 W/m2
19:32 45.7 °F 43.2 °F 29.6 in South 4.9 mph 10 mph 91% 0.03 in 0 W/m2
19:37 45.7 °F 43 °F 29.6 in WNW 12.1 mph 15 mph 90% 0.02 in 0 W/m2
19:42 45.5 °F 42.8 °F 29.6 in SSW 0.9 mph 15 mph 90% 0.03 in 0 W/m2
19:47 45.3 °F 42.6 °F 29.6 in SW 6.9 mph 10 mph 90% 0.03 in 0 W/m2
19:52 45.3 °F 42.6 °F 29.6 in NW 6 mph 8 mph 90% 0.02 in 0 W/m2
19:57 45.3 °F 42.6 °F 29.6 in West 2.9 mph 8 mph 90% 0.02 in 0 W/m2
20:02 45.1 °F 42.4 °F 29.6 in West 4 mph 7 mph 90% 0.02 in 0 W/m2
20:07 45.1 °F 42.1 °F 29.6 in NNW 2 mph 6 mph 89% 0.02 in 0 W/m2
20:12 45.3 °F 42.3 °F 29.6 in WNW 2.9 mph 5 mph 89% 0.02 in 0 W/m2
20:17 45.3 °F 42.3 °F 29.6 in NW 8.1 mph 10 mph 89% 0.02 in 0 W/m2
20:22 45.5 °F 42.4 °F 29.6 in West 10.1 mph 19 mph 89% 0.02 in 0 W/m2
20:27 45.5 °F 42.4 °F 29.6 in WNW 4.9 mph 13 mph 89% 0.01 in 0 W/m2
20:32 45.5 °F 42.4 °F 29.6 in WSW 2 mph 19 mph 89% 0.01 in 0 W/m2
20:37 45.5 °F 42.4 °F 29.6 in WNW 4.9 mph 13 mph 89% 0.01 in 0 W/m2
20:42 45.7 °F 42.6 °F 29.6 in West 6.9 mph 11 mph 89% 0 in 0 W/m2
20:47 45.7 °F 42.6 °F 29.6 in SW 4 mph 14 mph 89% 0 in 0 W/m2
20:52 45.7 °F 42.3 °F 29.6 in WNW 10.1 mph 18 mph 88% 0 in 0 W/m2
20:57 45.7 °F 42.3 °F 29.6 in WSW 6.9 mph 10 mph 88% 0 in 0 W/m2
21:02 45.7 °F 42.3 °F 29.6 in West 6.9 mph 13 mph 88% 0 in 0 W/m2
21:07 45.7 °F 42.1 °F 29.6 in WNW 4.9 mph 17 mph 87% 0 in 0 W/m2
21:12 45.9 °F 42.3 °F 29.6 in WSW 8.1 mph 11 mph 87% 0 in 0 W/m2
21:17 45.9 °F 42.3 °F 29.6 in WNW 2.9 mph 17 mph 87% 0 in 0 W/m2
21:22 45.7 °F 42.1 °F 29.6 in WNW 6 mph 9 mph 87% 0.01 in 0 W/m2
21:27 45.7 °F 42.1 °F 29.7 in WNW 8.9 mph 15 mph 87% 0.01 in 0 W/m2
21:32 45.3 °F 41.9 °F 29.7 in WNW 14.1 mph 26 mph 88% 0.02 in 0 W/m2
21:37 45 °F 41.5 °F 29.7 in West 11 mph 13 mph 88% 0.02 in 0 W/m2
21:42 44.4 °F 41.2 °F 29.7 in West 14.1 mph 21 mph 88% 0.02 in 0 W/m2
21:47 44.4 °F 41.2 °F 29.7 in West 19 mph 19 mph 88% 0.02 in 0 W/m2
21:52 44.4 °F 41.2 °F 29.7 in West 11 mph 21 mph 88% 0.03 in 0 W/m2
21:57 44.6 °F 41.2 °F 29.7 in WNW 13 mph 16 mph 88% 0.03 in 0 W/m2
22:02 44.4 °F 41.2 °F 29.7 in West 8.9 mph 16 mph 88% 0.03 in 0 W/m2
22:07 44.4 °F 40.8 °F 29.7 in NW 6.9 mph 17 mph 87% 0.03 in 0 W/m2
22:12 44.4 °F 40.8 °F 29.7 in West 6 mph 14 mph 87% 0.03 in 0 W/m2
22:17 44.2 °F 40.6 °F 29.7 in West 17.9 mph 18 mph 87% 0.03 in 0 W/m2
22:22 44.1 °F 40.8 °F 29.7 in WSW 11 mph 15 mph 88% 0.02 in 0 W/m2
22:27 43.9 °F 40.6 °F 29.7 in West 8.1 mph 18 mph 88% 0.02 in 0 W/m2
22:32 43.9 °F 40.6 °F 29.7 in WNW 10.1 mph 13 mph 88% 0.01 in 0 W/m2
22:37 44.1 °F 40.8 °F 29.7 in West 14.1 mph 14 mph 88% 0.01 in 0 W/m2
22:42 43.9 °F 40.6 °F 29.7 in West 8.9 mph 12 mph 88% 0.01 in 0 W/m2
22:47 43.9 °F 40.6 °F 29.7 in West 8.1 mph 10 mph 88% 0.01 in 0 W/m2
22:52 43.9 °F 40.8 °F 29.7 in WSW 8.1 mph 14 mph 89% 0 in 0 W/m2
22:57 44.1 °F 41 °F 29.7 in West 8.1 mph 19 mph 89% 0 in 0 W/m2
23:03 44.2 °F 41.2 °F 29.7 in WSW 8.1 mph 15 mph 89% 0 in 0 W/m2
23:08 44.2 °F 41.2 °F 29.7 in West 8.9 mph 11 mph 89% 0 in 0 W/m2
23:13 44.4 °F 41.4 °F 29.7 in WNW 8.1 mph 15 mph 89% 0 in 0 W/m2
23:18 44.4 °F 41.4 °F 29.7 in West 6.9 mph 11 mph 89% 0 in 0 W/m2
23:23 44.4 °F 41.4 °F 29.7 in NNW 4 mph 8 mph 89% 0 in 0 W/m2
23:28 44.6 °F 41.5 °F 29.8 in West 10.1 mph 12 mph 89% 0 in 0 W/m2
23:33 44.8 °F 41.7 °F 29.8 in NW 8.9 mph 9 mph 89% 0 in 0 W/m2
23:38 44.8 °F 41.7 °F 29.8 in WSW 8.1 mph 12 mph 89% 0 in 0 W/m2
23:43 45 °F 41.5 °F 29.8 in NW 8.9 mph 10 mph 88% 0 in 0 W/m2
23:48 45 °F 41.5 °F 29.8 in WNW 4 mph 7 mph 88% 0 in 0 W/m2
23:53 45 °F 41.5 °F 29.8 in NW 8.9 mph 13 mph 88% 0 in 0 W/m2
23:58 45.1 °F 41.7 °F 29.8 in West 6 mph 16 mph 88% 0 in 0 W/m2
Juneau County Weather
Compliments of Weather Underground - 4 mb